sensor_id;sensor_type;location;lat;lon;timestamp;temperature;humidity
11848;DHT22;5983;49.966;8.052;2023-01-19T00:00:40;-1.00;99.90
11848;DHT22;5983;49.966;8.052;2023-01-19T00:03:07;-1.10;99.90
11848;DHT22;5983;49.966;8.052;2023-01-19T00:05:40;-1.10;99.90
11848;DHT22;5983;49.966;8.052;2023-01-19T00:08:08;-1.00;99.90
11848;DHT22;5983;49.966;8.052;2023-01-19T00:10:40;-1.00;99.90
11848;DHT22;5983;49.966;8.052;2023-01-19T00:13:08;-0.90;99.90
11848;DHT22;5983;49.966;8.052;2023-01-19T00:15:37;-0.90;99.90
11848;DHT22;5983;49.966;8.052;2023-01-19T00:18:04;-0.90;99.90
11848;DHT22;5983;49.966;8.052;2023-01-19T00:20:31;-0.90;99.90
11848;DHT22;5983;49.966;8.052;2023-01-19T00:23:00;-0.90;99.90
11848;DHT22;5983;49.966;8.052;2023-01-19T00:25:27;-0.80;99.90
11848;DHT22;5983;49.966;8.052;2023-01-19T00:27:54;-0.70;99.90
11848;DHT22;5983;49.966;8.052;2023-01-19T00:30:21;-0.70;99.90
11848;DHT22;5983;49.966;8.052;2023-01-19T00:32:50;-0.60;99.90
11848;DHT22;5983;49.966;8.052;2023-01-19T00:35:17;-0.60;99.90
11848;DHT22;5983;49.966;8.052;2023-01-19T00:37:44;-0.50;99.90
11848;DHT22;5983;49.966;8.052;2023-01-19T00:40:11;-0.50;99.90
11848;DHT22;5983;49.966;8.052;2023-01-19T00:42:39;-0.60;99.90
11848;DHT22;5983;49.966;8.052;2023-01-19T00:45:07;-0.50;99.90
11848;DHT22;5983;49.966;8.052;2023-01-19T00:47:35;-0.50;99.90
11848;DHT22;5983;49.966;8.052;2023-01-19T00:50:05;-0.40;99.90
11848;DHT22;5983;49.966;8.052;2023-01-19T00:52:36;-0.50;99.90
11848;DHT22;5983;49.966;8.052;2023-01-19T00:55:03;-0.50;99.90
11848;DHT22;5983;49.966;8.052;2023-01-19T00:57:31;-0.50;99.90
11848;DHT22;5983;49.966;8.052;2023-01-19T00:59:58;-0.50;99.90
11848;DHT22;5983;49.966;8.052;2023-01-19T01:02:25;-0.50;99.90
11848;DHT22;5983;49.966;8.052;2023-01-19T01:04:52;-0.50;99.90
11848;DHT22;5983;49.966;8.052;2023-01-19T01:07:23;-0.50;99.90
11848;DHT22;5983;49.966;8.052;2023-01-19T01:09:50;-0.40;99.90
11848;DHT22;5983;49.966;8.052;2023-01-19T01:12:17;-0.40;99.90
11848;DHT22;5983;49.966;8.052;2023-01-19T01:14:44;-0.40;99.90
11848;DHT22;5983;49.966;8.052;2023-01-19T01:17:11;-0.40;99.90
11848;DHT22;5983;49.966;8.052;2023-01-19T01:19:38;-0.40;99.90
11848;DHT22;5983;49.966;8.052;2023-01-19T01:22:06;-0.40;99.90
11848;DHT22;5983;49.966;8.052;2023-01-19T01:24:35;-0.30;99.90
11848;DHT22;5983;49.966;8.052;2023-01-19T01:27:02;-0.30;99.90
11848;DHT22;5983;49.966;8.052;2023-01-19T01:29:29;-0.30;99.90
11848;DHT22;5983;49.966;8.052;2023-01-19T01:31:59;-0.30;99.90
11848;DHT22;5983;49.966;8.052;2023-01-19T01:34:26;-0.30;99.90
11848;DHT22;5983;49.966;8.052;2023-01-19T01:36:53;-0.40;99.90
11848;DHT22;5983;49.966;8.052;2023-01-19T01:39:20;-0.50;99.90
11848;DHT22;5983;49.966;8.052;2023-01-19T01:41:49;-0.60;99.90
11848;DHT22;5983;49.966;8.052;2023-01-19T01:44:42;-0.60;99.90
11848;DHT22;5983;49.966;8.052;2023-01-19T01:47:17;-0.70;99.90
11848;DHT22;5983;49.966;8.052;2023-01-19T01:49:51;-0.70;99.90
11848;DHT22;5983;49.966;8.052;2023-01-19T01:52:22;-0.70;99.90
11848;DHT22;5983;49.966;8.052;2023-01-19T01:54:52;-0.80;99.90
11848;DHT22;5983;49.966;8.052;2023-01-19T01:57:21;-0.80;99.90
11848;DHT22;5983;49.966;8.052;2023-01-19T01:59:54;-0.80;99.90
11848;DHT22;5983;49.966;8.052;2023-01-19T02:02:24;-0.80;99.90
11848;DHT22;5983;49.966;8.052;2023-01-19T02:05:16;-0.80;99.90
11848;DHT22;5983;49.966;8.052;2023-01-19T02:07:49;-0.80;99.90
11848;DHT22;5983;49.966;8.052;2023-01-19T02:10:38;-0.80;99.90
11848;DHT22;5983;49.966;8.052;2023-01-19T02:13:27;-0.80;99.90
11848;DHT22;5983;49.966;8.052;2023-01-19T02:15:58;-0.70;99.90
11848;DHT22;5983;49.966;8.052;2023-01-19T02:18:28;-0.80;99.90
11848;DHT22;5983;49.966;8.052;2023-01-19T02:21:03;-0.80;99.90
11848;DHT22;5983;49.966;8.052;2023-01-19T02:23:42;-0.80;99.90
11848;DHT22;5983;49.966;8.052;2023-01-19T02:26:12;-0.80;99.90
11848;DHT22;5983;49.966;8.052;2023-01-19T02:28:44;-0.80;99.90
11848;DHT22;5983;49.966;8.052;2023-01-19T02:31:15;-0.90;99.90
11848;DHT22;5983;49.966;8.052;2023-01-19T02:33:43;-1.00;99.90
11848;DHT22;5983;49.966;8.052;2023-01-19T02:36:12;-1.00;99.90
11848;DHT22;5983;49.966;8.052;2023-01-19T02:38:44;-1.00;99.90
11848;DHT22;5983;49.966;8.052;2023-01-19T02:41:17;-1.00;99.90
11848;DHT22;5983;49.966;8.052;2023-01-19T02:43:48;-0.90;99.90
11848;DHT22;5983;49.966;8.052;2023-01-19T02:46:16;-0.90;99.90
11848;DHT22;5983;49.966;8.052;2023-01-19T02:48:43;-0.90;99.90
11848;DHT22;5983;49.966;8.052;2023-01-19T02:51:13;-0.80;99.90
11848;DHT22;5983;49.966;8.052;2023-01-19T02:54:18;-0.80;99.90
11848;DHT22;5983;49.966;8.052;2023-01-19T03:00:08;-0.80;99.90
11848;DHT22;5983;49.966;8.052;2023-01-19T03:02:51;-0.80;99.90
11848;DHT22;5983;49.966;8.052;2023-01-19T03:05:36;-0.80;99.90
11848;DHT22;5983;49.966;8.052;2023-01-19T03:08:25;-0.80;99.90
11848;DHT22;5983;49.966;8.052;2023-01-19T03:11:02;-0.80;99.90
11848;DHT22;5983;49.966;8.052;2023-01-19T03:13:40;-0.80;99.90
11848;DHT22;5983;49.966;8.052;2023-01-19T03:16:15;-0.70;99.90
11848;DHT22;5983;49.966;8.052;2023-01-19T03:18:50;-0.70;99.90
11848;DHT22;5983;49.966;8.052;2023-01-19T03:21:20;-0.80;99.90
11848;DHT22;5983;49.966;8.052;2023-01-19T03:23:51;-0.80;99.90
11848;DHT22;5983;49.966;8.052;2023-01-19T03:26:26;-0.80;99.90
11848;DHT22;5983;49.966;8.052;2023-01-19T03:28:58;-0.80;99.90
11848;DHT22;5983;49.966;8.052;2023-01-19T03:31:30;-0.90;99.90
11848;DHT22;5983;49.966;8.052;2023-01-19T03:34:02;-0.90;99.90
11848;DHT22;5983;49.966;8.052;2023-01-19T03:36:35;-0.90;99.90
11848;DHT22;5983;49.966;8.052;2023-01-19T03:39:06;-0.90;99.90
11848;DHT22;5983;49.966;8.052;2023-01-19T03:41:38;-0.80;99.90
11848;DHT22;5983;49.966;8.052;2023-01-19T03:44:10;-0.90;99.90
11848;DHT22;5983;49.966;8.052;2023-01-19T03:46:38;-0.80;99.90
11848;DHT22;5983;49.966;8.052;2023-01-19T03:49:06;-0.80;99.90
11848;DHT22;5983;49.966;8.052;2023-01-19T03:51:35;-0.70;99.90
11848;DHT22;5983;49.966;8.052;2023-01-19T03:54:03;-0.70;99.90
11848;DHT22;5983;49.966;8.052;2023-01-19T03:56:31;-0.70;99.90
11848;DHT22;5983;49.966;8.052;2023-01-19T03:58:59;-0.70;99.90
11848;DHT22;5983;49.966;8.052;2023-01-19T04:01:27;-0.80;99.90
11848;DHT22;5983;49.966;8.052;2023-01-19T04:03:54;-0.70;99.90
11848;DHT22;5983;49.966;8.052;2023-01-19T04:06:21;-0.70;99.90
11848;DHT22;5983;49.966;8.052;2023-01-19T04:08:49;-0.70;99.90
11848;DHT22;5983;49.966;8.052;2023-01-19T04:11:17;-0.70;99.90
11848;DHT22;5983;49.966;8.052;2023-01-19T04:13:44;-0.70;99.90
11848;DHT22;5983;49.966;8.052;2023-01-19T04:16:12;-0.70;99.90
11848;DHT22;5983;49.966;8.052;2023-01-19T04:18:44;-0.80;99.90
11848;DHT22;5983;49.966;8.052;2023-01-19T04:21:11;-0.70;99.90
11848;DHT22;5983;49.966;8.052;2023-01-19T04:23:38;-0.80;99.90
11848;DHT22;5983;49.966;8.052;2023-01-19T04:26:06;-0.70;99.90
11848;DHT22;5983;49.966;8.052;2023-01-19T04:28:34;-0.70;99.90
11848;DHT22;5983;49.966;8.052;2023-01-19T04:31:02;-0.60;99.90
11848;DHT22;5983;49.966;8.052;2023-01-19T04:33:32;-0.60;99.90
11848;DHT22;5983;49.966;8.052;2023-01-19T04:35:59;-0.60;99.90
11848;DHT22;5983;49.966;8.052;2023-01-19T04:38:27;-0.50;99.90
11848;DHT22;5983;49.966;8.052;2023-01-19T04:40:54;-0.50;99.90
11848;DHT22;5983;49.966;8.052;2023-01-19T04:43:22;-0.50;99.90
11848;DHT22;5983;49.966;8.052;2023-01-19T04:45:50;-0.50;99.90
11848;DHT22;5983;49.966;8.052;2023-01-19T04:48:17;-0.50;99.90
11848;DHT22;5983;49.966;8.052;2023-01-19T04:50:46;-0.50;99.90
11848;DHT22;5983;49.966;8.052;2023-01-19T04:53:13;-0.50;99.90
11848;DHT22;5983;49.966;8.052;2023-01-19T04:55:41;-0.50;99.90
11848;DHT22;5983;49.966;8.052;2023-01-19T04:58:08;-0.40;99.90
11848;DHT22;5983;49.966;8.052;2023-01-19T05:00:35;-0.40;99.90
11848;DHT22;5983;49.966;8.052;2023-01-19T05:03:02;-0.40;99.90
11848;DHT22;5983;49.966;8.052;2023-01-19T05:05:29;-0.40;99.90
11848;DHT22;5983;49.966;8.052;2023-01-19T05:07:58;-0.30;99.90
11848;DHT22;5983;49.966;8.052;2023-01-19T05:10:25;-0.30;99.90
11848;DHT22;5983;49.966;8.052;2023-01-19T05:12:52;-0.30;99.90
11848;DHT22;5983;49.966;8.052;2023-01-19T05:15:19;-0.30;99.90
11848;DHT22;5983;49.966;8.052;2023-01-19T05:17:47;-0.30;99.90
11848;DHT22;5983;49.966;8.052;2023-01-19T05:20:14;-0.20;99.90
11848;DHT22;5983;49.966;8.052;2023-01-19T05:22:41;-0.20;99.90
11848;DHT22;5983;49.966;8.052;2023-01-19T05:25:10;-0.20;99.90
11848;DHT22;5983;49.966;8.052;2023-01-19T05:27:37;-0.20;99.90
11848;DHT22;5983;49.966;8.052;2023-01-19T05:30:05;-0.10;99.90
11848;DHT22;5983;49.966;8.052;2023-01-19T05:32:32;0.00;99.90
11848;DHT22;5983;49.966;8.052;2023-01-19T05:34:59;0.00;99.90
11848;DHT22;5983;49.966;8.052;2023-01-19T05:37:26;0.10;99.90
11848;DHT22;5983;49.966;8.052;2023-01-19T05:39:53;0.10;99.90
11848;DHT22;5983;49.966;8.052;2023-01-19T05:42:21;0.20;99.90
11848;DHT22;5983;49.966;8.052;2023-01-19T05:44:48;0.30;99.90
11848;DHT22;5983;49.966;8.052;2023-01-19T05:47:15;0.30;99.90
11848;DHT22;5983;49.966;8.052;2023-01-19T05:49:42;0.30;99.90
11848;DHT22;5983;49.966;8.052;2023-01-19T05:52:09;0.40;99.90
11848;DHT22;5983;49.966;8.052;2023-01-19T05:54:36;0.40;99.90
11848;DHT22;5983;49.966;8.052;2023-01-19T05:57:04;0.40;99.90
11848;DHT22;5983;49.966;8.052;2023-01-19T05:59:33;0.40;99.90
11848;DHT22;5983;49.966;8.052;2023-01-19T06:02:00;0.40;99.90
11848;DHT22;5983;49.966;8.052;2023-01-19T06:04:27;0.40;99.90
11848;DHT22;5983;49.966;8.052;2023-01-19T06:06:54;0.50;99.90
11848;DHT22;5983;49.966;8.052;2023-01-19T06:09:21;0.50;99.90
11848;DHT22;5983;49.966;8.052;2023-01-19T06:11:47;0.50;99.90
11848;DHT22;5983;49.966;8.052;2023-01-19T06:14:15;0.50;99.90
11848;DHT22;5983;49.966;8.052;2023-01-19T06:16:43;0.50;99.90
11848;DHT22;5983;49.966;8.052;2023-01-19T06:19:10;0.50;99.90
11848;DHT22;5983;49.966;8.052;2023-01-19T06:21:37;0.50;99.90
11848;DHT22;5983;49.966;8.052;2023-01-19T06:24:04;0.50;99.90
11848;DHT22;5983;49.966;8.052;2023-01-19T06:26:31;0.60;99.90
11848;DHT22;5983;49.966;8.052;2023-01-19T06:28:58;0.60;99.90
11848;DHT22;5983;49.966;8.052;2023-01-19T06:31:25;0.60;99.90
11848;DHT22;5983;49.966;8.052;2023-01-19T06:33:53;0.60;99.90
11848;DHT22;5983;49.966;8.052;2023-01-19T06:36:20;0.60;99.90
11848;DHT22;5983;49.966;8.052;2023-01-19T06:38:47;0.70;99.90
11848;DHT22;5983;49.966;8.052;2023-01-19T06:41:14;0.70;99.90
11848;DHT22;5983;49.966;8.052;2023-01-19T06:43:41;0.70;99.90
11848;DHT22;5983;49.966;8.052;2023-01-19T06:46:08;0.70;99.90
11848;DHT22;5983;49.966;8.052;2023-01-19T06:48:35;0.70;99.90
11848;DHT22;5983;49.966;8.052;2023-01-19T06:51:03;0.70;99.90
11848;DHT22;5983;49.966;8.052;2023-01-19T06:53:31;0.70;99.90
11848;DHT22;5983;49.966;8.052;2023-01-19T06:55:58;0.70;99.90
11848;DHT22;5983;49.966;8.052;2023-01-19T06:58:26;0.70;99.90
11848;DHT22;5983;49.966;8.052;2023-01-19T07:00:54;0.70;99.90
11848;DHT22;5983;49.966;8.052;2023-01-19T07:03:22;0.80;99.90
11848;DHT22;5983;49.966;8.052;2023-01-19T07:05:50;0.70;99.90
11848;DHT22;5983;49.966;8.052;2023-01-19T07:08:19;0.70;99.90
11848;DHT22;5983;49.966;8.052;2023-01-19T07:10:46;0.70;99.90
11848;DHT22;5983;49.966;8.052;2023-01-19T07:13:13;0.80;99.90
11848;DHT22;5983;49.966;8.052;2023-01-19T07:15:41;0.80;99.90
11848;DHT22;5983;49.966;8.052;2023-01-19T07:18:08;0.80;99.90
11848;DHT22;5983;49.966;8.052;2023-01-19T07:20:36;0.80;99.90
11848;DHT22;5983;49.966;8.052;2023-01-19T07:23:03;0.90;99.90
11848;DHT22;5983;49.966;8.052;2023-01-19T07:25:31;0.90;99.90
11848;DHT22;5983;49.966;8.052;2023-01-19T07:27:59;0.90;99.90
11848;DHT22;5983;49.966;8.052;2023-01-19T07:30:26;0.90;99.90
11848;DHT22;5983;49.966;8.052;2023-01-19T07:32:54;0.90;99.90
11848;DHT22;5983;49.966;8.052;2023-01-19T07:35:22;0.90;99.90
11848;DHT22;5983;49.966;8.052;2023-01-19T07:37:50;0.90;99.90
11848;DHT22;5983;49.966;8.052;2023-01-19T07:40:17;0.90;99.90
11848;DHT22;5983;49.966;8.052;2023-01-19T07:42:49;1.00;99.90
11848;DHT22;5983;49.966;8.052;2023-01-19T07:45:17;1.00;99.90
11848;DHT22;5983;49.966;8.052;2023-01-19T07:47:47;1.10;99.90
11848;DHT22;5983;49.966;8.052;2023-01-19T07:50:15;1.00;99.90
11848;DHT22;5983;49.966;8.052;2023-01-19T07:52:46;1.10;99.90
11848;DHT22;5983;49.966;8.052;2023-01-19T07:55:15;1.10;99.90
11848;DHT22;5983;49.966;8.052;2023-01-19T07:57:42;1.10;99.90
11848;DHT22;5983;49.966;8.052;2023-01-19T08:00:11;1.10;99.90
11848;DHT22;5983;49.966;8.052;2023-01-19T08:02:39;1.10;99.90
11848;DHT22;5983;49.966;8.052;2023-01-19T08:05:07;1.10;99.90
11848;DHT22;5983;49.966;8.052;2023-01-19T08:07:34;1.10;99.90
11848;DHT22;5983;49.966;8.052;2023-01-19T08:10:01;1.10;99.90
11848;DHT22;5983;49.966;8.052;2023-01-19T08:12:28;1.10;99.90
11848;DHT22;5983;49.966;8.052;2023-01-19T08:14:55;1.20;99.90
11848;DHT22;5983;49.966;8.052;2023-01-19T08:17:25;1.30;99.90
11848;DHT22;5983;49.966;8.052;2023-01-19T08:19:52;1.60;99.90
11848;DHT22;5983;49.966;8.052;2023-01-19T08:22:19;2.20;99.90
11848;DHT22;5983;49.966;8.052;2023-01-19T08:24:46;2.80;99.90
11848;DHT22;5983;49.966;8.052;2023-01-19T08:27:13;3.30;99.90
11848;DHT22;5983;49.966;8.052;2023-01-19T08:29:39;3.80;99.90
11848;DHT22;5983;49.966;8.052;2023-01-19T08:32:06;4.20;99.90
11848;DHT22;5983;49.966;8.052;2023-01-19T08:34:34;4.70;99.90
11848;DHT22;5983;49.966;8.052;2023-01-19T08:37:01;5.40;99.90
11848;DHT22;5983;49.966;8.052;2023-01-19T08:39:28;5.70;99.90
11848;DHT22;5983;49.966;8.052;2023-01-19T08:41:55;5.90;99.90
11848;DHT22;5983;49.966;8.052;2023-01-19T08:44:23;5.90;99.90
11848;DHT22;5983;49.966;8.052;2023-01-19T08:46:50;5.80;99.90
11848;DHT22;5983;49.966;8.052;2023-01-19T08:49:17;5.80;99.90
11848;DHT22;5983;49.966;8.052;2023-01-19T08:51:45;5.50;99.90
11848;DHT22;5983;49.966;8.052;2023-01-19T08:54:13;5.20;99.90
11848;DHT22;5983;49.966;8.052;2023-01-19T08:56:41;5.10;99.90
11848;DHT22;5983;49.966;8.052;2023-01-19T08:59:08;5.10;99.90
11848;DHT22;5983;49.966;8.052;2023-01-19T09:01:35;5.20;99.90
11848;DHT22;5983;49.966;8.052;2023-01-19T09:04:02;5.20;99.90
11848;DHT22;5983;49.966;8.052;2023-01-19T09:06:30;5.20;99.90
11848;DHT22;5983;49.966;8.052;2023-01-19T09:08:58;5.20;99.90
11848;DHT22;5983;49.966;8.052;2023-01-19T09:11:25;5.20;99.90
11848;DHT22;5983;49.966;8.052;2023-01-19T09:13:52;5.20;99.90
11848;DHT22;5983;49.966;8.052;2023-01-19T09:16:19;5.00;99.90
11848;DHT22;5983;49.966;8.052;2023-01-19T09:18:46;5.00;99.90
11848;DHT22;5983;49.966;8.052;2023-01-19T09:21:13;4.90;99.90
11848;DHT22;5983;49.966;8.052;2023-01-19T09:23:40;4.80;99.90
11848;DHT22;5983;49.966;8.052;2023-01-19T09:26:09;4.80;99.90
11848;DHT22;5983;49.966;8.052;2023-01-19T09:28:37;4.80;99.90
11848;DHT22;5983;49.966;8.052;2023-01-19T09:31:04;4.70;99.90
11848;DHT22;5983;49.966;8.052;2023-01-19T09:33:32;4.50;99.90
11848;DHT22;5983;49.966;8.052;2023-01-19T09:36:00;4.20;99.90
11848;DHT22;5983;49.966;8.052;2023-01-19T09:38:27;3.90;99.90
11848;DHT22;5983;49.966;8.052;2023-01-19T09:40:59;3.70;99.90
11848;DHT22;5983;49.966;8.052;2023-01-19T09:43:36;3.60;99.90
11848;DHT22;5983;49.966;8.052;2023-01-19T09:46:11;3.70;99.90
11848;DHT22;5983;49.966;8.052;2023-01-19T09:48:44;3.90;99.90
11848;DHT22;5983;49.966;8.052;2023-01-19T09:51:15;4.00;99.90
11848;DHT22;5983;49.966;8.052;2023-01-19T09:53:59;4.20;99.90
11848;DHT22;5983;49.966;8.052;2023-01-19T09:56:35;4.30;99.90
11848;DHT22;5983;49.966;8.052;2023-01-19T09:59:14;4.40;99.90
11848;DHT22;5983;49.966;8.052;2023-01-19T10:02:12;4.30;99.90
11848;DHT22;5983;49.966;8.052;2023-01-19T10:04:55;4.20;99.90
11848;DHT22;5983;49.966;8.052;2023-01-19T10:07:44;4.00;99.90
11848;DHT22;5983;49.966;8.052;2023-01-19T10:10:21;3.90;99.90
11848;DHT22;5983;49.966;8.052;2023-01-19T10:13:01;3.90;99.90
11848;DHT22;5983;49.966;8.052;2023-01-19T10:15:55;3.90;99.90
11848;DHT22;5983;49.966;8.052;2023-01-19T10:18:31;3.80;99.90
11848;DHT22;5983;49.966;8.052;2023-01-19T10:21:13;3.70;99.90
11848;DHT22;5983;49.966;8.052;2023-01-19T10:23:46;3.70;99.90
11848;DHT22;5983;49.966;8.052;2023-01-19T10:26:20;3.60;99.90
11848;DHT22;5983;49.966;8.052;2023-01-19T10:28:52;3.60;99.90
11848;DHT22;5983;49.966;8.052;2023-01-19T10:31:23;3.70;99.90
11848;DHT22;5983;49.966;8.052;2023-01-19T10:33:51;3.60;99.90
11848;DHT22;5983;49.966;8.052;2023-01-19T10:36:20;3.70;99.90
11848;DHT22;5983;49.966;8.052;2023-01-19T10:38:51;3.70;99.90
11848;DHT22;5983;49.966;8.052;2023-01-19T10:41:19;3.80;99.90
11848;DHT22;5983;49.966;8.052;2023-01-19T10:43:58;4.00;99.90
11848;DHT22;5983;49.966;8.052;2023-01-19T10:46:33;4.40;99.90
11848;DHT22;5983;49.966;8.052;2023-01-19T10:49:05;4.60;99.90
11848;DHT22;5983;49.966;8.052;2023-01-19T10:51:46;4.70;99.90
11848;DHT22;5983;49.966;8.052;2023-01-19T10:54:14;4.90;99.90
11848;DHT22;5983;49.966;8.052;2023-01-19T10:56:42;5.10;99.90
11848;DHT22;5983;49.966;8.052;2023-01-19T10:59:30;5.50;99.90
11848;DHT22;5983;49.966;8.052;2023-01-19T11:02:16;6.00;99.90
11848;DHT22;5983;49.966;8.052;2023-01-19T11:04:46;6.50;99.90
11848;DHT22;5983;49.966;8.052;2023-01-19T11:07:19;7.10;99.90
11848;DHT22;5983;49.966;8.052;2023-01-19T11:09:48;7.70;99.90
11848;DHT22;5983;49.966;8.052;2023-01-19T11:12:17;8.40;99.90
11848;DHT22;5983;49.966;8.052;2023-01-19T11:14:47;8.90;99.90
11848;DHT22;5983;49.966;8.052;2023-01-19T11:17:22;9.10;99.90
11848;DHT22;5983;49.966;8.052;2023-01-19T11:19:58;9.10;99.90
11848;DHT22;5983;49.966;8.052;2023-01-19T11:22:30;8.90;99.90
11848;DHT22;5983;49.966;8.052;2023-01-19T11:25:03;8.60;99.90
11848;DHT22;5983;49.966;8.052;2023-01-19T11:27:33;8.20;99.90
11848;DHT22;5983;49.966;8.052;2023-01-19T11:30:06;7.90;99.90
11848;DHT22;5983;49.966;8.052;2023-01-19T11:32:44;7.50;99.90
11848;DHT22;5983;49.966;8.052;2023-01-19T11:35:43;7.10;99.90
11848;DHT22;5983;49.966;8.052;2023-01-19T11:38:16;6.80;99.90
11848;DHT22;5983;49.966;8.052;2023-01-19T11:40:50;6.50;99.90
11848;DHT22;5983;49.966;8.052;2023-01-19T11:43:21;6.20;99.90
11848;DHT22;5983;49.966;8.052;2023-01-19T11:45:50;5.90;99.90
11848;DHT22;5983;49.966;8.052;2023-01-19T11:48:24;5.60;99.90
11848;DHT22;5983;49.966;8.052;2023-01-19T11:50:56;5.40;99.90
11848;DHT22;5983;49.966;8.052;2023-01-19T11:53:29;5.30;99.90
11848;DHT22;5983;49.966;8.052;2023-01-19T11:56:07;5.10;99.90
11848;DHT22;5983;49.966;8.052;2023-01-19T11:58:53;5.00;99.90
11848;DHT22;5983;49.966;8.052;2023-01-19T12:01:43;4.90;99.90
11848;DHT22;5983;49.966;8.052;2023-01-19T12:04:24;4.80;99.90
11848;DHT22;5983;49.966;8.052;2023-01-19T12:07:01;4.70;99.90
11848;DHT22;5983;49.966;8.052;2023-01-19T12:09:34;4.70;99.90
11848;DHT22;5983;49.966;8.052;2023-01-19T12:12:24;4.80;99.90
11848;DHT22;5983;49.966;8.052;2023-01-19T12:14:58;4.90;99.90
11848;DHT22;5983;49.966;8.052;2023-01-19T12:17:30;5.00;99.90
11848;DHT22;5983;49.966;8.052;2023-01-19T12:20:05;5.20;99.90
11848;DHT22;5983;49.966;8.052;2023-01-19T12:22:46;5.40;99.90
11848;DHT22;5983;49.966;8.052;2023-01-19T12:25:21;5.50;99.90
11848;DHT22;5983;49.966;8.052;2023-01-19T12:27:52;5.70;99.90
11848;DHT22;5983;49.966;8.052;2023-01-19T12:30:22;5.70;99.90
11848;DHT22;5983;49.966;8.052;2023-01-19T12:32:51;5.70;99.90
11848;DHT22;5983;49.966;8.052;2023-01-19T12:35:56;5.80;99.90
11848;DHT22;5983;49.966;8.052;2023-01-19T12:38:46;6.00;99.90
11848;DHT22;5983;49.966;8.052;2023-01-19T12:41:28;6.20;99.90
11848;DHT22;5983;49.966;8.052;2023-01-19T12:44:20;6.70;99.90
11848;DHT22;5983;49.966;8.052;2023-01-19T12:46:54;7.00;99.90
11848;DHT22;5983;49.966;8.052;2023-01-19T12:49:29;7.10;99.90
11848;DHT22;5983;49.966;8.052;2023-01-19T12:52:30;7.10;99.90
11848;DHT22;5983;49.966;8.052;2023-01-19T12:55:06;7.10;99.90
11848;DHT22;5983;49.966;8.052;2023-01-19T12:57:58;7.00;99.90
11848;DHT22;5983;49.966;8.052;2023-01-19T13:00:31;6.90;99.90
11848;DHT22;5983;49.966;8.052;2023-01-19T13:09:31;6.70;99.90
11848;DHT22;5983;49.966;8.052;2023-01-19T13:12:22;6.50;99.90
11848;DHT22;5983;49.966;8.052;2023-01-19T13:14:50;6.40;99.90
11848;DHT22;5983;49.966;8.052;2023-01-19T13:17:45;6.20;99.90
11848;DHT22;5983;49.966;8.052;2023-01-19T13:20:23;6.00;99.90
11848;DHT22;5983;49.966;8.052;2023-01-19T13:23:18;5.90;99.90
11848;DHT22;5983;49.966;8.052;2023-01-19T13:26:01;5.70;99.90
11848;DHT22;5983;49.966;8.052;2023-01-19T13:28:35;5.70;99.90
11848;DHT22;5983;49.966;8.052;2023-01-19T13:31:05;5.60;99.90
11848;DHT22;5983;49.966;8.052;2023-01-19T13:33:42;5.50;99.90
11848;DHT22;5983;49.966;8.052;2023-01-19T13:36:18;5.40;99.90
11848;DHT22;5983;49.966;8.052;2023-01-19T13:38:51;5.40;99.90
11848;DHT22;5983;49.966;8.052;2023-01-19T13:41:22;5.30;99.90
11848;DHT22;5983;49.966;8.052;2023-01-19T13:43:55;5.30;99.90
11848;DHT22;5983;49.966;8.052;2023-01-19T13:46:27;5.20;99.90
11848;DHT22;5983;49.966;8.052;2023-01-19T13:48:57;5.10;99.90
11848;DHT22;5983;49.966;8.052;2023-01-19T13:51:27;5.10;99.90
11848;DHT22;5983;49.966;8.052;2023-01-19T13:53:56;5.00;99.90
11848;DHT22;5983;49.966;8.052;2023-01-19T13:56:26;5.00;99.90
11848;DHT22;5983;49.966;8.052;2023-01-19T13:59:09;4.90;99.90
11848;DHT22;5983;49.966;8.052;2023-01-19T14:01:39;4.90;99.90
11848;DHT22;5983;49.966;8.052;2023-01-19T14:04:28;4.80;99.90
11848;DHT22;5983;49.966;8.052;2023-01-19T14:06:58;4.80;99.90
11848;DHT22;5983;49.966;8.052;2023-01-19T14:09:27;4.80;99.90
11848;DHT22;5983;49.966;8.052;2023-01-19T14:12:08;4.80;99.90
11848;DHT22;5983;49.966;8.052;2023-01-19T14:14:38;4.80;99.90
11848;DHT22;5983;49.966;8.052;2023-01-19T14:17:26;4.80;99.90
11848;DHT22;5983;49.966;8.052;2023-01-19T14:19:55;4.80;99.90
11848;DHT22;5983;49.966;8.052;2023-01-19T14:22:37;4.80;99.90
11848;DHT22;5983;49.966;8.052;2023-01-19T14:25:26;4.90;99.90
11848;DHT22;5983;49.966;8.052;2023-01-19T14:28:26;4.90;99.90
11848;DHT22;5983;49.966;8.052;2023-01-19T14:31:17;4.90;99.90
11848;DHT22;5983;49.966;8.052;2023-01-19T14:33:47;4.90;99.90
11848;DHT22;5983;49.966;8.052;2023-01-19T14:36:28;4.90;99.90
11848;DHT22;5983;49.966;8.052;2023-01-19T14:39:01;4.90;99.90
11848;DHT22;5983;49.966;8.052;2023-01-19T14:41:36;4.90;99.90
11848;DHT22;5983;49.966;8.052;2023-01-19T14:44:09;4.90;99.90
11848;DHT22;5983;49.966;8.052;2023-01-19T14:46:37;4.80;99.90
11848;DHT22;5983;49.966;8.052;2023-01-19T14:49:16;4.80;99.90
11848;DHT22;5983;49.966;8.052;2023-01-19T14:51:48;4.80;99.90
11848;DHT22;5983;49.966;8.052;2023-01-19T14:54:26;4.80;99.90
11848;DHT22;5983;49.966;8.052;2023-01-19T14:56:58;4.70;99.90
11848;DHT22;5983;49.966;8.052;2023-01-19T14:59:26;4.70;99.90
11848;DHT22;5983;49.966;8.052;2023-01-19T15:01:53;4.70;99.90
11848;DHT22;5983;49.966;8.052;2023-01-19T15:04:20;4.70;99.90
11848;DHT22;5983;49.966;8.052;2023-01-19T15:06:47;4.60;99.90
11848;DHT22;5983;49.966;8.052;2023-01-19T15:09:15;4.60;99.90
11848;DHT22;5983;49.966;8.052;2023-01-19T15:11:42;4.60;99.90
11848;DHT22;5983;49.966;8.052;2023-01-19T15:14:13;4.50;99.90
11848;DHT22;5983;49.966;8.052;2023-01-19T15:16:42;4.50;99.90
11848;DHT22;5983;49.966;8.052;2023-01-19T15:19:11;4.50;99.90
11848;DHT22;5983;49.966;8.052;2023-01-19T15:21:38;4.50;99.90
11848;DHT22;5983;49.966;8.052;2023-01-19T15:24:07;4.50;99.90
11848;DHT22;5983;49.966;8.052;2023-01-19T15:26:36;4.40;99.90
11848;DHT22;5983;49.966;8.052;2023-01-19T15:29:14;4.40;99.90
11848;DHT22;5983;49.966;8.052;2023-01-19T15:31:47;4.40;99.90
11848;DHT22;5983;49.966;8.052;2023-01-19T15:34:14;4.40;99.90
11848;DHT22;5983;49.966;8.052;2023-01-19T15:36:41;4.40;99.90
11848;DHT22;5983;49.966;8.052;2023-01-19T15:39:08;4.40;99.90
11848;DHT22;5983;49.966;8.052;2023-01-19T15:41:37;4.30;99.90
11848;DHT22;5983;49.966;8.052;2023-01-19T15:44:05;4.30;99.90
11848;DHT22;5983;49.966;8.052;2023-01-19T15:46:34;4.30;99.90
11848;DHT22;5983;49.966;8.052;2023-01-19T15:49:02;4.30;99.90
11848;DHT22;5983;49.966;8.052;2023-01-19T15:51:30;4.20;99.90
11848;DHT22;5983;49.966;8.052;2023-01-19T15:53:57;4.20;99.90
11848;DHT22;5983;49.966;8.052;2023-01-19T15:56:26;4.20;99.90
11848;DHT22;5983;49.966;8.052;2023-01-19T15:58:55;4.10;99.90
11848;DHT22;5983;49.966;8.052;2023-01-19T16:01:24;4.10;99.90
11848;DHT22;5983;49.966;8.052;2023-01-19T16:03:57;4.00;99.90
11848;DHT22;5983;49.966;8.052;2023-01-19T16:06:27;4.00;99.90
11848;DHT22;5983;49.966;8.052;2023-01-19T16:08:55;4.00;99.90
11848;DHT22;5983;49.966;8.052;2023-01-19T16:11:26;3.90;99.90
11848;DHT22;5983;49.966;8.052;2023-01-19T16:13:54;3.90;99.90
11848;DHT22;5983;49.966;8.052;2023-01-19T16:16:22;3.80;99.90
11848;DHT22;5983;49.966;8.052;2023-01-19T16:18:50;3.80;99.90
11848;DHT22;5983;49.966;8.052;2023-01-19T16:21:17;3.80;99.90
11848;DHT22;5983;49.966;8.052;2023-01-19T16:23:45;3.70;99.90
11848;DHT22;5983;49.966;8.052;2023-01-19T16:26:24;3.70;99.90
11848;DHT22;5983;49.966;8.052;2023-01-19T16:28:55;3.70;99.90
11848;DHT22;5983;49.966;8.052;2023-01-19T16:31:23;3.60;99.90
11848;DHT22;5983;49.966;8.052;2023-01-19T16:33:50;3.60;99.90